»·PEaware :: N815M KSNA-KBUR

N815M :: KSNA-KBUR

FLIGHT INFORMATION

Flight Status: Arrived
Operator: Privately registered:
United States
More flights under this callsign
Pilot: Robert C. (30425)
Aircraft: BEECH AIRCRAFT DEBONAIR BONANZA
(BE33)
More flights by this aircraft type
Origin: KSNA John Wayne-Orange Co
United States
Destination: KBUR Bob Hope-Burbank
United States
More flights between these airports :: More routes between these airports
Route: +SLI V23 SMO125R SMO SMO311R SILEX
File this flight plan on PilotEdge
Remarks: TEC ROUTE CSTP1
Altitude:
(Current/Filed)
4,000ft
Speed:
(Current/Filed)
140kts
Departed: 19-Oct-20 07:24 PM
Arrived: 19-Oct-20 07:54 PM
Distance/Time
Traveled:
40nm/0:30
Distance/Time
To Go:
Arrived

Flight Plot

Page will automatically refresh every two minutes.


Map Options




Map Legend


Flown Route
Filed Route
Departure Airport
Arrival Airport
Navaid (VOR, NDB)
Fix

Horizontal Profiles

Position Reports

Time Latitude Longitude Heading Altitude Ground
Speed
19-Oct-20 18:46 33.674722 -117.871615 217 60ft 0kts
19-Oct-20 18:47 33.674722 -117.871615 217 60ft 0kts
19-Oct-20 18:48 33.674698 -117.871637 212 60ft 0kts
19-Oct-20 18:49 33.674698 -117.871637 212 60ft 0kts
19-Oct-20 18:50 33.674698 -117.871637 212 60ft 0kts
19-Oct-20 18:51 33.674698 -117.871637 212 60ft 0kts
19-Oct-20 18:52 33.674698 -117.871637 212 60ft 0kts
19-Oct-20 18:53 33.674698 -117.871637 212 60ft 0kts
19-Oct-20 18:54 33.674698 -117.871637 212 60ft 0kts
19-Oct-20 18:55 33.674698 -117.871637 212 60ft 0kts
19-Oct-20 18:56 33.674698 -117.871637 212 60ft 0kts
19-Oct-20 18:57 33.674698 -117.871637 212 60ft 0kts
19-Oct-20 18:58 33.674698 -117.871637 212 60ft 0kts
19-Oct-20 18:59 33.674698 -117.871637 212 60ft 0kts
19-Oct-20 19:00 33.674698 -117.871637 212 60ft 0kts
19-Oct-20 19:02 33.674698 -117.871637 212 60ft 0kts
19-Oct-20 19:03 33.674698 -117.871637 212 60ft 0kts
19-Oct-20 19:04 33.674698 -117.871637 212 60ft 0kts
19-Oct-20 19:05 33.674698 -117.871637 212 60ft 0kts
19-Oct-20 19:06 33.674698 -117.871637 212 60ft 0kts
19-Oct-20 19:07 33.674698 -117.871637 212 60ft 0kts
19-Oct-20 19:08 33.674698 -117.871637 212 60ft 0kts
19-Oct-20 19:09 33.674698 -117.871637 212 60ft 0kts
19-Oct-20 19:10 33.674698 -117.871637 212 60ft 0kts
19-Oct-20 19:11 33.674698 -117.871637 212 60ft 0kts
19-Oct-20 19:12 33.674698 -117.871637 212 60ft 0kts
19-Oct-20 19:13 33.674698 -117.871637 212 60ft 0kts
19-Oct-20 19:14 33.674698 -117.871637 212 60ft 0kts
19-Oct-20 19:15 33.674698 -117.871637 212 60ft 0kts
19-Oct-20 19:16 33.674698 -117.871637 212 60ft 0kts
19-Oct-20 19:17 33.674698 -117.871637 212 60ft 0kts
19-Oct-20 19:18 33.674698 -117.871637 212 60ft 0kts
19-Oct-20 19:19 33.674421 -117.871315 103 60ft 6kts
19-Oct-20 19:20 33.677161 -117.869374 28 60ft 15kts
19-Oct-20 19:20 33.680738 -117.867314 26 60ft 16kts
19-Oct-20 19:22 33.681233 -117.866499 121 60ft 0kts
19-Oct-20 19:22 33.680467 -117.865810 202 60ft 16kts
19-Oct-20 19:24 33.655697 -117.884655 230 482ft 104kts
19-Oct-20 19:24 33.640418 -117.907109 231 982ft 104kts
19-Oct-20 19:25 33.618047 -117.940237 231 1739ft 139kts
19-Oct-20 19:26 33.601178 -117.982026 261 2544ft 142kts
19-Oct-20 19:27 33.626056 -118.016211 317 3347ft 140kts
19-Oct-20 19:28 33.653960 -118.049127 315 3991ft 146kts
19-Oct-20 19:29 33.684186 -118.086804 314 3993ft 161kts
19-Oct-20 19:30 33.715468 -118.126363 314 3984ft 163kts
19-Oct-20 19:31 33.746739 -118.166069 313 3985ft 162kts
19-Oct-20 19:32 33.777822 -118.205619 313 3985ft 162kts
19-Oct-20 19:33 33.804992 -118.240374 312 3981ft 145kts
19-Oct-20 19:34 33.833884 -118.277198 311 3987ft 139kts
19-Oct-20 19:35 33.865164 -118.310941 318 3989ft 138kts
19-Oct-20 19:36 33.897102 -118.343027 318 3989ft 138kts
19-Oct-20 19:37 33.928654 -118.374695 318 3989ft 136kts
19-Oct-20 19:38 33.960176 -118.406387 317 3988ft 137kts
19-Oct-20 19:39 33.991886 -118.438384 317 3988ft 138kts
19-Oct-20 19:40 34.023874 -118.470827 317 3988ft 139kts
19-Oct-20 19:41 34.056519 -118.503911 317 3988ft 140kts
19-Oct-20 19:42 34.087854 -118.535579 317 3511ft 140kts
19-Oct-20 19:43 34.115135 -118.563210 316 3301ft 127kts
19-Oct-20 19:44 34.149390 -118.585007 340 3293ft 146kts
19-Oct-20 19:45 34.190575 -118.594828 16 3300ft 149kts
19-Oct-20 19:46 34.230392 -118.580692 24 3284ft 144kts
19-Oct-20 19:47 34.246095 -118.540544 110 3103ft 147kts
19-Oct-20 19:48 34.214774 -118.514365 152 3043ft 132kts
19-Oct-20 19:49 34.199263 -118.479241 90 2962ft 126kts
19-Oct-20 19:50 34.199543 -118.430596 93 1877ft 126kts
19-Oct-20 19:51 34.198231 -118.394205 92 1186ft 99kts
19-Oct-20 19:52 34.197882 -118.361141 95 721ft 59kts
19-Oct-20 19:53 34.198516 -118.352216 348 707ft 0kts
19-Oct-20 19:54 34.198791 -118.353591 269 710ft 18kts
19-Oct-20 19:55 34.199738 -118.359123 257 724ft 6kts
19-Oct-20 19:56 34.199456 -118.359349 169 723ft 0kts
19-Oct-20 19:57 34.199456 -118.359349 169 723ft 0kts
19-Oct-20 19:58 34.199456 -118.359349 169 723ft 0kts
19-Oct-20 19:59 34.199456 -118.359349 169 723ft 0kts
19-Oct-20 20:00 34.199456 -118.359349 169 723ft 0kts
19-Oct-20 20:01 34.199456 -118.359349 169 723ft 0kts
19-Oct-20 20:02 34.199456 -118.359349 169 723ft 0kts
19-Oct-20 20:03 34.199456 -118.359349 169 723ft 0kts
19-Oct-20 20:04 34.199456 -118.359349 169 723ft 0kts
19-Oct-20 20:05 34.199456 -118.359349 169 723ft 0kts
19-Oct-20 20:06 34.199456 -118.359349 169 723ft 0kts
19-Oct-20 20:07 34.199456 -118.359349 169 723ft 0kts

Navigation Log

Ident Type
Flight plan parsing failed, navigation log unavailable